Harper, Washington
Current Conditions -  °F | °C
As of 12:15 AM on Thursday 29 Jan 2015 (Local Time) from KPWT Reporting Station
Broken Clouds Broken Clouds  
Wind Chill: 39°   Ceiling: 8000
Heat Index: 39°   Visibility: 10mi
Dew Point: 39°   Wind: 3mph
Humidity: 100%   Direction: 20°NNE
Pressure: 30.38"   Gusts: NA
Location:  47.5378°N, 122.589°W
Report Text: KPWT 290815Z AUTO 02003KT 10SM BKN080 04/04 A3038 RMK AO1
Loading
Personal Weather Stations






























Interactive Weather Map New forecast layout! Learn more

10-Day Weather Forecast

Advertisements
Track Severe Weather on mobile